sensor_id;sensor_type;location;lat;lon;timestamp;P1;durP1;ratioP1;P2;durP2;ratioP2
13493;SDS011;6819;50.886;4.332;2023-04-03T00:00:56;8.02;;;3.63;;
13493;SDS011;6819;50.886;4.332;2023-04-03T00:03:22;7.65;;;4.63;;
13493;SDS011;6819;50.886;4.332;2023-04-03T00:05:48;9.25;;;4.18;;
13493;SDS011;6819;50.886;4.332;2023-04-03T00:08:15;6.53;;;4.32;;
13493;SDS011;6819;50.886;4.332;2023-04-03T00:10:41;8.45;;;4.50;;
13493;SDS011;6819;50.886;4.332;2023-04-03T00:13:07;6.07;;;4.35;;
13493;SDS011;6819;50.886;4.332;2023-04-03T00:15:34;6.82;;;3.90;;
13493;SDS011;6819;50.886;4.332;2023-04-03T00:18:00;8.93;;;4.05;;
13493;SDS011;6819;50.886;4.332;2023-04-03T00:20:26;9.43;;;4.30;;
13493;SDS011;6819;50.886;4.332;2023-04-03T00:22:53;7.22;;;3.65;;
13493;SDS011;6819;50.886;4.332;2023-04-03T00:25:19;8.85;;;4.18;;
13493;SDS011;6819;50.886;4.332;2023-04-03T00:27:45;10.43;;;4.53;;
13493;SDS011;6819;50.886;4.332;2023-04-03T00:30:13;10.07;;;4.05;;
13493;SDS011;6819;50.886;4.332;2023-04-03T00:32:39;9.68;;;4.15;;
13493;SDS011;6819;50.886;4.332;2023-04-03T00:35:05;12.60;;;4.20;;
13493;SDS011;6819;50.886;4.332;2023-04-03T00:37:31;10.45;;;4.03;;
13493;SDS011;6819;50.886;4.332;2023-04-03T00:39:57;6.88;;;4.18;;
13493;SDS011;6819;50.886;4.332;2023-04-03T00:42:24;8.43;;;3.35;;
13493;SDS011;6819;50.886;4.332;2023-04-03T00:47:22;8.57;;;4.30;;
13493;SDS011;6819;50.886;4.332;2023-04-03T00:49:48;6.15;;;4.25;;
13493;SDS011;6819;50.886;4.332;2023-04-03T00:52:16;6.47;;;3.63;;
13493;SDS011;6819;50.886;4.332;2023-04-03T00:54:42;7.10;;;4.20;;
13493;SDS011;6819;50.886;4.332;2023-04-03T00:57:09;7.85;;;4.47;;
13493;SDS011;6819;50.886;4.332;2023-04-03T00:59:36;9.77;;;4.05;;
13493;SDS011;6819;50.886;4.332;2023-04-03T01:02:05;10.80;;;4.75;;
13493;SDS011;6819;50.886;4.332;2023-04-03T01:04:32;5.78;;;3.95;;
13493;SDS011;6819;50.886;4.332;2023-04-03T01:07:12;6.20;;;3.92;;
13493;SDS011;6819;50.886;4.332;2023-04-03T01:09:40;8.68;;;4.10;;
13493;SDS011;6819;50.886;4.332;2023-04-03T01:12:23;5.97;;;4.25;;
13493;SDS011;6819;50.886;4.332;2023-04-03T01:14:51;9.90;;;4.18;;
13493;SDS011;6819;50.886;4.332;2023-04-03T01:17:36;11.55;;;4.30;;
13493;SDS011;6819;50.886;4.332;2023-04-03T01:22:40;7.28;;;4.25;;
13493;SDS011;6819;50.886;4.332;2023-04-03T01:25:10;6.00;;;4.13;;
13493;SDS011;6819;50.886;4.332;2023-04-03T01:27:36;7.25;;;3.92;;
13493;SDS011;6819;50.886;4.332;2023-04-03T01:30:02;6.97;;;3.88;;
13493;SDS011;6819;50.886;4.332;2023-04-03T01:32:28;6.20;;;3.97;;
13493;SDS011;6819;50.886;4.332;2023-04-03T01:34:54;8.77;;;3.85;;
13493;SDS011;6819;50.886;4.332;2023-04-03T01:37:20;5.78;;;3.72;;
13493;SDS011;6819;50.886;4.332;2023-04-03T01:39:46;5.97;;;3.78;;
13493;SDS011;6819;50.886;4.332;2023-04-03T01:42:12;6.35;;;4.07;;
13493;SDS011;6819;50.886;4.332;2023-04-03T01:44:38;9.27;;;4.85;;
13493;SDS011;6819;50.886;4.332;2023-04-03T01:47:05;9.70;;;4.20;;
13493;SDS011;6819;50.886;4.332;2023-04-03T01:49:32;8.38;;;4.85;;
13493;SDS011;6819;50.886;4.332;2023-04-03T01:51:58;9.40;;;4.10;;
13493;SDS011;6819;50.886;4.332;2023-04-03T01:54:24;7.60;;;4.05;;
13493;SDS011;6819;50.886;4.332;2023-04-03T01:56:50;10.93;;;4.65;;
13493;SDS011;6819;50.886;4.332;2023-04-03T01:59:16;8.52;;;4.35;;
13493;SDS011;6819;50.886;4.332;2023-04-03T02:01:44;10.73;;;4.80;;
13493;SDS011;6819;50.886;4.332;2023-04-03T02:04:10;11.93;;;4.55;;
13493;SDS011;6819;50.886;4.332;2023-04-03T02:06:36;11.77;;;4.47;;
13493;SDS011;6819;50.886;4.332;2023-04-03T02:09:03;6.50;;;4.00;;
13493;SDS011;6819;50.886;4.332;2023-04-03T02:11:30;8.30;;;3.97;;
13493;SDS011;6819;50.886;4.332;2023-04-03T02:13:56;9.23;;;4.53;;
13493;SDS011;6819;50.886;4.332;2023-04-03T02:16:22;8.82;;;4.25;;
13493;SDS011;6819;50.886;4.332;2023-04-03T02:18:48;9.63;;;4.30;;
13493;SDS011;6819;50.886;4.332;2023-04-03T02:21:14;12.15;;;4.90;;
13493;SDS011;6819;50.886;4.332;2023-04-03T02:23:40;8.27;;;4.35;;
13493;SDS011;6819;50.886;4.332;2023-04-03T02:26:08;6.75;;;3.97;;
13493;SDS011;6819;50.886;4.332;2023-04-03T02:28:34;6.47;;;3.92;;
13493;SDS011;6819;50.886;4.332;2023-04-03T02:31:01;7.40;;;4.15;;
13493;SDS011;6819;50.886;4.332;2023-04-03T02:33:27;7.53;;;4.05;;
13493;SDS011;6819;50.886;4.332;2023-04-03T02:35:56;8.55;;;4.57;;
13493;SDS011;6819;50.886;4.332;2023-04-03T02:38:22;9.18;;;4.28;;
13493;SDS011;6819;50.886;4.332;2023-04-03T02:40:48;9.45;;;4.78;;
13493;SDS011;6819;50.886;4.332;2023-04-03T02:43:14;7.20;;;4.15;;
13493;SDS011;6819;50.886;4.332;2023-04-03T02:45:40;8.88;;;4.45;;
13493;SDS011;6819;50.886;4.332;2023-04-03T02:48:06;7.47;;;4.15;;
13493;SDS011;6819;50.886;4.332;2023-04-03T02:50:32;10.68;;;4.95;;
13493;SDS011;6819;50.886;4.332;2023-04-03T02:52:59;9.63;;;4.30;;
13493;SDS011;6819;50.886;4.332;2023-04-03T02:55:25;7.13;;;4.40;;
13493;SDS011;6819;50.886;4.332;2023-04-03T02:57:51;10.50;;;3.85;;
13493;SDS011;6819;50.886;4.332;2023-04-03T03:00:17;9.32;;;4.10;;
13493;SDS011;6819;50.886;4.332;2023-04-03T03:02:43;5.57;;;3.40;;
13493;SDS011;6819;50.886;4.332;2023-04-03T03:05:09;8.02;;;4.38;;
13493;SDS011;6819;50.886;4.332;2023-04-03T03:07:35;10.02;;;4.18;;
13493;SDS011;6819;50.886;4.332;2023-04-03T03:10:01;7.95;;;4.70;;
13493;SDS011;6819;50.886;4.332;2023-04-03T03:12:27;8.65;;;4.65;;
13493;SDS011;6819;50.886;4.332;2023-04-03T03:14:53;5.55;;;3.95;;
13493;SDS011;6819;50.886;4.332;2023-04-03T03:17:19;8.20;;;4.65;;
13493;SDS011;6819;50.886;4.332;2023-04-03T03:19:45;6.80;;;4.05;;
13493;SDS011;6819;50.886;4.332;2023-04-03T03:22:11;5.97;;;3.90;;
13493;SDS011;6819;50.886;4.332;2023-04-03T03:24:37;6.47;;;4.13;;
13493;SDS011;6819;50.886;4.332;2023-04-03T03:27:03;8.40;;;4.25;;
13493;SDS011;6819;50.886;4.332;2023-04-03T03:29:30;9.02;;;4.25;;
13493;SDS011;6819;50.886;4.332;2023-04-03T03:31:56;5.90;;;4.15;;
13493;SDS011;6819;50.886;4.332;2023-04-03T03:34:22;7.93;;;3.95;;
13493;SDS011;6819;50.886;4.332;2023-04-03T03:36:48;6.95;;;4.38;;
13493;SDS011;6819;50.886;4.332;2023-04-03T03:39:14;7.50;;;4.32;;
13493;SDS011;6819;50.886;4.332;2023-04-03T03:41:40;8.98;;;3.85;;
13493;SDS011;6819;50.886;4.332;2023-04-03T03:44:06;9.27;;;4.53;;
13493;SDS011;6819;50.886;4.332;2023-04-03T03:46:32;10.60;;;4.53;;
13493;SDS011;6819;50.886;4.332;2023-04-03T03:48:58;10.13;;;4.47;;
13493;SDS011;6819;50.886;4.332;2023-04-03T03:51:24;13.55;;;4.45;;
13493;SDS011;6819;50.886;4.332;2023-04-03T03:53:50;6.60;;;4.05;;
13493;SDS011;6819;50.886;4.332;2023-04-03T03:56:16;9.45;;;4.35;;
13493;SDS011;6819;50.886;4.332;2023-04-03T03:58:43;6.93;;;4.40;;
13493;SDS011;6819;50.886;4.332;2023-04-03T04:01:09;9.30;;;4.72;;
13493;SDS011;6819;50.886;4.332;2023-04-03T04:03:35;11.70;;;5.22;;
13493;SDS011;6819;50.886;4.332;2023-04-03T04:06:01;10.90;;;4.22;;
13493;SDS011;6819;50.886;4.332;2023-04-03T04:08:27;7.63;;;4.18;;
13493;SDS011;6819;50.886;4.332;2023-04-03T04:10:54;7.90;;;4.50;;
13493;SDS011;6819;50.886;4.332;2023-04-03T04:13:20;9.52;;;5.30;;
13493;SDS011;6819;50.886;4.332;2023-04-03T04:15:46;9.60;;;4.55;;
13493;SDS011;6819;50.886;4.332;2023-04-03T04:18:12;8.00;;;4.50;;
13493;SDS011;6819;50.886;4.332;2023-04-03T04:20:38;7.07;;;4.28;;
13493;SDS011;6819;50.886;4.332;2023-04-03T04:23:04;11.20;;;4.70;;
13493;SDS011;6819;50.886;4.332;2023-04-03T04:25:30;8.43;;;4.70;;
13493;SDS011;6819;50.886;4.332;2023-04-03T04:27:56;6.35;;;4.55;;
13493;SDS011;6819;50.886;4.332;2023-04-03T04:30:22;7.28;;;4.85;;
13493;SDS011;6819;50.886;4.332;2023-04-03T04:32:48;8.20;;;4.47;;
13493;SDS011;6819;50.886;4.332;2023-04-03T04:35:14;6.90;;;4.47;;
13493;SDS011;6819;50.886;4.332;2023-04-03T04:37:40;8.02;;;4.70;;
13493;SDS011;6819;50.886;4.332;2023-04-03T04:40:07;9.90;;;4.85;;
13493;SDS011;6819;50.886;4.332;2023-04-03T04:42:33;8.10;;;5.10;;
13493;SDS011;6819;50.886;4.332;2023-04-03T04:44:59;9.45;;;5.32;;
13493;SDS011;6819;50.886;4.332;2023-04-03T04:47:25;9.25;;;5.47;;
13493;SDS011;6819;50.886;4.332;2023-04-03T04:49:51;10.05;;;5.25;;
13493;SDS011;6819;50.886;4.332;2023-04-03T04:52:17;13.18;;;5.47;;
13493;SDS011;6819;50.886;4.332;2023-04-03T04:54:44;8.20;;;5.40;;
13493;SDS011;6819;50.886;4.332;2023-04-03T04:57:10;8.45;;;4.63;;
13493;SDS011;6819;50.886;4.332;2023-04-03T04:59:36;8.35;;;5.18;;
13493;SDS011;6819;50.886;4.332;2023-04-03T05:02:02;10.18;;;5.20;;
13493;SDS011;6819;50.886;4.332;2023-04-03T05:04:29;7.43;;;4.88;;
13493;SDS011;6819;50.886;4.332;2023-04-03T05:06:55;8.35;;;4.82;;
13493;SDS011;6819;50.886;4.332;2023-04-03T05:09:21;8.52;;;5.53;;
13493;SDS011;6819;50.886;4.332;2023-04-03T05:11:47;8.45;;;5.05;;
13493;SDS011;6819;50.886;4.332;2023-04-03T05:14:13;12.65;;;5.53;;
13493;SDS011;6819;50.886;4.332;2023-04-03T05:16:39;10.20;;;5.65;;
13493;SDS011;6819;50.886;4.332;2023-04-03T05:19:05;6.80;;;4.93;;
13493;SDS011;6819;50.886;4.332;2023-04-03T05:21:32;10.25;;;5.05;;
13493;SDS011;6819;50.886;4.332;2023-04-03T05:23:59;9.43;;;5.65;;
13493;SDS011;6819;50.886;4.332;2023-04-03T05:26:27;8.77;;;5.43;;
13493;SDS011;6819;50.886;4.332;2023-04-03T05:28:53;14.90;;;6.72;;
13493;SDS011;6819;50.886;4.332;2023-04-03T05:31:19;12.05;;;6.07;;
13493;SDS011;6819;50.886;4.332;2023-04-03T05:33:45;12.23;;;5.72;;
13493;SDS011;6819;50.886;4.332;2023-04-03T05:36:12;10.50;;;5.60;;
13493;SDS011;6819;50.886;4.332;2023-04-03T05:38:38;12.05;;;5.95;;
13493;SDS011;6819;50.886;4.332;2023-04-03T05:41:05;13.68;;;6.85;;
13493;SDS011;6819;50.886;4.332;2023-04-03T05:43:31;8.27;;;5.43;;
13493;SDS011;6819;50.886;4.332;2023-04-03T05:45:58;10.85;;;5.65;;
13493;SDS011;6819;50.886;4.332;2023-04-03T05:48:24;12.93;;;5.57;;
13493;SDS011;6819;50.886;4.332;2023-04-03T05:50:50;9.38;;;5.38;;
13493;SDS011;6819;50.886;4.332;2023-04-03T05:53:21;8.85;;;5.57;;
13493;SDS011;6819;50.886;4.332;2023-04-03T05:55:47;9.40;;;5.20;;
13493;SDS011;6819;50.886;4.332;2023-04-03T05:58:13;11.50;;;6.45;;
13493;SDS011;6819;50.886;4.332;2023-04-03T06:00:40;10.93;;;6.55;;
13493;SDS011;6819;50.886;4.332;2023-04-03T06:03:06;11.60;;;6.20;;
13493;SDS011;6819;50.886;4.332;2023-04-03T06:05:32;9.13;;;5.93;;
13493;SDS011;6819;50.886;4.332;2023-04-03T06:07:58;13.95;;;5.75;;
13493;SDS011;6819;50.886;4.332;2023-04-03T06:10:24;13.05;;;6.50;;
13493;SDS011;6819;50.886;4.332;2023-04-03T06:12:51;10.43;;;5.68;;
13493;SDS011;6819;50.886;4.332;2023-04-03T06:15:17;9.35;;;6.25;;
13493;SDS011;6819;50.886;4.332;2023-04-03T06:17:43;11.18;;;6.40;;
13493;SDS011;6819;50.886;4.332;2023-04-03T06:20:10;11.77;;;7.05;;
13493;SDS011;6819;50.886;4.332;2023-04-03T06:22:37;11.68;;;6.82;;
13493;SDS011;6819;50.886;4.332;2023-04-03T06:25:03;10.90;;;6.47;;
13493;SDS011;6819;50.886;4.332;2023-04-03T06:27:29;9.70;;;6.47;;
13493;SDS011;6819;50.886;4.332;2023-04-03T06:29:55;8.38;;;6.13;;
13493;SDS011;6819;50.886;4.332;2023-04-03T06:32:21;11.75;;;6.82;;
13493;SDS011;6819;50.886;4.332;2023-04-03T06:34:48;12.93;;;6.00;;
13493;SDS011;6819;50.886;4.332;2023-04-03T06:37:17;10.73;;;6.78;;
13493;SDS011;6819;50.886;4.332;2023-04-03T06:39:44;13.82;;;6.93;;
13493;SDS011;6819;50.886;4.332;2023-04-03T06:42:10;10.75;;;6.32;;
13493;SDS011;6819;50.886;4.332;2023-04-03T06:44:37;10.85;;;6.60;;
13493;SDS011;6819;50.886;4.332;2023-04-03T06:47:03;7.88;;;6.13;;
13493;SDS011;6819;50.886;4.332;2023-04-03T06:49:29;12.38;;;6.55;;
13493;SDS011;6819;50.886;4.332;2023-04-03T06:51:55;11.63;;;6.38;;
13493;SDS011;6819;50.886;4.332;2023-04-03T06:54:22;13.57;;;6.45;;
13493;SDS011;6819;50.886;4.332;2023-04-03T06:56:48;10.55;;;5.95;;
13493;SDS011;6819;50.886;4.332;2023-04-03T06:59:15;10.05;;;6.47;;
13493;SDS011;6819;50.886;4.332;2023-04-03T07:01:42;12.52;;;6.20;;
13493;SDS011;6819;50.886;4.332;2023-04-03T07:04:08;15.95;;;6.78;;
13493;SDS011;6819;50.886;4.332;2023-04-03T07:06:34;8.90;;;5.72;;
13493;SDS011;6819;50.886;4.332;2023-04-03T07:09:00;16.65;;;6.53;;
13493;SDS011;6819;50.886;4.332;2023-04-03T07:11:26;11.30;;;6.20;;
13493;SDS011;6819;50.886;4.332;2023-04-03T07:13:53;10.60;;;6.22;;
13493;SDS011;6819;50.886;4.332;2023-04-03T07:16:19;9.68;;;6.18;;
13493;SDS011;6819;50.886;4.332;2023-04-03T07:18:45;7.47;;;5.53;;
13493;SDS011;6819;50.886;4.332;2023-04-03T07:21:11;11.43;;;6.28;;
13493;SDS011;6819;50.886;4.332;2023-04-03T07:23:38;9.48;;;5.85;;
13493;SDS011;6819;50.886;4.332;2023-04-03T07:26:04;10.15;;;5.72;;
13493;SDS011;6819;50.886;4.332;2023-04-03T07:28:31;15.10;;;6.22;;
13493;SDS011;6819;50.886;4.332;2023-04-03T07:31:04;10.98;;;5.88;;
13493;SDS011;6819;50.886;4.332;2023-04-03T07:33:33;8.98;;;6.10;;
13493;SDS011;6819;50.886;4.332;2023-04-03T07:36:00;9.40;;;6.03;;
13493;SDS011;6819;50.886;4.332;2023-04-03T07:38:26;12.07;;;5.72;;
13493;SDS011;6819;50.886;4.332;2023-04-03T07:40:52;12.10;;;5.57;;
13493;SDS011;6819;50.886;4.332;2023-04-03T07:43:18;12.50;;;6.30;;
13493;SDS011;6819;50.886;4.332;2023-04-03T07:45:45;9.02;;;5.85;;
13493;SDS011;6819;50.886;4.332;2023-04-03T07:48:14;10.60;;;5.88;;
13493;SDS011;6819;50.886;4.332;2023-04-03T07:50:42;13.55;;;7.75;;
13493;SDS011;6819;50.886;4.332;2023-04-03T07:53:08;13.80;;;5.88;;
13493;SDS011;6819;50.886;4.332;2023-04-03T07:55:34;10.25;;;5.80;;
13493;SDS011;6819;50.886;4.332;2023-04-03T07:58:07;10.30;;;5.97;;
13493;SDS011;6819;50.886;4.332;2023-04-03T08:00:33;11.75;;;5.63;;
13493;SDS011;6819;50.886;4.332;2023-04-03T08:02:59;10.73;;;6.13;;
13493;SDS011;6819;50.886;4.332;2023-04-03T08:05:26;10.95;;;5.40;;
13493;SDS011;6819;50.886;4.332;2023-04-03T08:07:52;11.57;;;6.30;;
13493;SDS011;6819;50.886;4.332;2023-04-03T08:10:18;16.08;;;6.07;;
13493;SDS011;6819;50.886;4.332;2023-04-03T08:12:48;11.98;;;6.30;;
13493;SDS011;6819;50.886;4.332;2023-04-03T08:15:14;9.63;;;5.05;;
13493;SDS011;6819;50.886;4.332;2023-04-03T08:17:41;10.45;;;5.30;;
13493;SDS011;6819;50.886;4.332;2023-04-03T08:20:07;8.43;;;4.82;;
13493;SDS011;6819;50.886;4.332;2023-04-03T08:22:33;7.50;;;5.05;;
13493;SDS011;6819;50.886;4.332;2023-04-03T08:24:59;11.38;;;5.18;;
13493;SDS011;6819;50.886;4.332;2023-04-03T08:27:26;8.50;;;5.78;;
13493;SDS011;6819;50.886;4.332;2023-04-03T08:29:53;10.85;;;5.50;;
13493;SDS011;6819;50.886;4.332;2023-04-03T08:32:19;7.88;;;4.32;;
13493;SDS011;6819;50.886;4.332;2023-04-03T08:34:45;9.77;;;5.35;;
13493;SDS011;6819;50.886;4.332;2023-04-03T08:37:11;10.18;;;4.63;;
13493;SDS011;6819;50.886;4.332;2023-04-03T08:39:38;9.65;;;4.50;;
13493;SDS011;6819;50.886;4.332;2023-04-03T08:42:31;11.43;;;4.78;;
13493;SDS011;6819;50.886;4.332;2023-04-03T08:47:29;10.90;;;4.63;;
13493;SDS011;6819;50.886;4.332;2023-04-03T08:50:00;9.82;;;4.20;;
13493;SDS011;6819;50.886;4.332;2023-04-03T08:52:49;14.85;;;5.50;;
13493;SDS011;6819;50.886;4.332;2023-04-03T08:55:19;9.70;;;4.75;;
13493;SDS011;6819;50.886;4.332;2023-04-03T08:57:46;8.80;;;4.80;;
13493;SDS011;6819;50.886;4.332;2023-04-03T09:02:41;10.63;;;4.32;;
13493;SDS011;6819;50.886;4.332;2023-04-03T09:05:12;7.60;;;3.60;;
13493;SDS011;6819;50.886;4.332;2023-04-03T09:07:42;6.22;;;4.07;;
13493;SDS011;6819;50.886;4.332;2023-04-03T09:10:09;11.80;;;4.43;;
13493;SDS011;6819;50.886;4.332;2023-04-03T09:12:46;12.00;;;3.70;;
13493;SDS011;6819;50.886;4.332;2023-04-03T09:17:49;6.15;;;4.20;;
13493;SDS011;6819;50.886;4.332;2023-04-03T09:20:34;9.68;;;3.55;;
13493;SDS011;6819;50.886;4.332;2023-04-03T09:23:04;4.38;;;2.90;;
13493;SDS011;6819;50.886;4.332;2023-04-03T09:25:34;6.40;;;3.20;;
13493;SDS011;6819;50.886;4.332;2023-04-03T09:28:02;6.82;;;3.30;;
13493;SDS011;6819;50.886;4.332;2023-04-03T09:30:28;5.70;;;3.20;;
13493;SDS011;6819;50.886;4.332;2023-04-03T09:32:55;5.63;;;2.50;;
13493;SDS011;6819;50.886;4.332;2023-04-03T09:35:25;5.82;;;2.90;;
13493;SDS011;6819;50.886;4.332;2023-04-03T09:37:59;5.00;;;2.88;;
13493;SDS011;6819;50.886;4.332;2023-04-03T09:42:55;6.72;;;3.00;;
13493;SDS011;6819;50.886;4.332;2023-04-03T09:45:32;8.45;;;2.53;;
13493;SDS011;6819;50.886;4.332;2023-04-03T09:48:06;6.13;;;2.65;;
13493;SDS011;6819;50.886;4.332;2023-04-03T09:50:33;4.38;;;2.70;;
13493;SDS011;6819;50.886;4.332;2023-04-03T09:53:02;7.13;;;2.85;;
13493;SDS011;6819;50.886;4.332;2023-04-03T09:55:30;5.68;;;2.67;;
13493;SDS011;6819;50.886;4.332;2023-04-03T09:57:59;6.82;;;2.40;;
13493;SDS011;6819;50.886;4.332;2023-04-03T10:00:36;5.80;;;2.88;;
13493;SDS011;6819;50.886;4.332;2023-04-03T10:03:03;5.80;;;2.70;;
13493;SDS011;6819;50.886;4.332;2023-04-03T10:05:37;3.70;;;2.50;;
13493;SDS011;6819;50.886;4.332;2023-04-03T10:08:23;6.13;;;2.63;;
13493;SDS011;6819;50.886;4.332;2023-04-03T10:11:05;6.57;;;2.42;;
13493;SDS011;6819;50.886;4.332;2023-04-03T10:13:31;4.82;;;2.28;;
13493;SDS011;6819;50.886;4.332;2023-04-03T10:18:40;4.40;;;2.15;;
13493;SDS011;6819;50.886;4.332;2023-04-03T10:29:31;5.23;;;2.20;;
13493;SDS011;6819;50.886;4.332;2023-04-03T10:34:43;4.65;;;2.03;;
13493;SDS011;6819;50.886;4.332;2023-04-03T10:42:37;3.78;;;1.90;;
13493;SDS011;6819;50.886;4.332;2023-04-03T10:53:14;5.78;;;2.05;;
13493;SDS011;6819;50.886;4.332;2023-04-03T10:55:51;6.40;;;2.40;;
13493;SDS011;6819;50.886;4.332;2023-04-03T10:58:29;3.72;;;1.80;;
13493;SDS011;6819;50.886;4.332;2023-04-03T11:00:59;6.28;;;2.50;;
13493;SDS011;6819;50.886;4.332;2023-04-03T11:03:29;6.90;;;2.15;;
13493;SDS011;6819;50.886;4.332;2023-04-03T11:05:56;4.13;;;1.95;;
13493;SDS011;6819;50.886;4.332;2023-04-03T11:11:02;6.78;;;2.20;;
13493;SDS011;6819;50.886;4.332;2023-04-03T11:16:31;6.25;;;2.40;;
13493;SDS011;6819;50.886;4.332;2023-04-03T11:19:01;5.40;;;2.65;;
13493;SDS011;6819;50.886;4.332;2023-04-03T11:21:47;3.97;;;2.05;;
13493;SDS011;6819;50.886;4.332;2023-04-03T11:24:22;9.20;;;2.15;;
13493;SDS011;6819;50.886;4.332;2023-04-03T11:26:50;4.07;;;1.90;;
13493;SDS011;6819;50.886;4.332;2023-04-03T11:29:18;6.35;;;2.00;;
13493;SDS011;6819;50.886;4.332;2023-04-03T11:32:04;5.85;;;1.90;;
13493;SDS011;6819;50.886;4.332;2023-04-03T11:34:37;6.60;;;1.75;;
13493;SDS011;6819;50.886;4.332;2023-04-03T11:37:12;4.82;;;1.92;;
13493;SDS011;6819;50.886;4.332;2023-04-03T11:39:39;3.47;;;1.85;;
13493;SDS011;6819;50.886;4.332;2023-04-03T11:42:22;6.50;;;2.13;;
13493;SDS011;6819;50.886;4.332;2023-04-03T11:44:51;4.15;;;2.00;;
13493;SDS011;6819;50.886;4.332;2023-04-03T11:47:44;5.35;;;2.38;;
13493;SDS011;6819;50.886;4.332;2023-04-03T11:50:45;4.38;;;2.00;;
13493;SDS011;6819;50.886;4.332;2023-04-03T12:08:26;5.05;;;2.20;;
13493;SDS011;6819;50.886;4.332;2023-04-03T12:13:35;6.78;;;1.80;;
13493;SDS011;6819;50.886;4.332;2023-04-03T12:16:01;6.20;;;1.88;;
13493;SDS011;6819;50.886;4.332;2023-04-03T12:21:13;3.80;;;2.08;;
13493;SDS011;6819;50.886;4.332;2023-04-03T12:29:10;4.32;;;1.92;;
13493;SDS011;6819;50.886;4.332;2023-04-03T12:31:42;6.38;;;2.13;;
13493;SDS011;6819;50.886;4.332;2023-04-03T12:36:42;6.50;;;1.92;;
13493;SDS011;6819;50.886;4.332;2023-04-03T12:39:21;3.13;;;1.60;;
13493;SDS011;6819;50.886;4.332;2023-04-03T12:41:51;3.50;;;2.00;;
13493;SDS011;6819;50.886;4.332;2023-04-03T12:44:38;2.88;;;1.83;;
13493;SDS011;6819;50.886;4.332;2023-04-03T12:49:52;3.67;;;1.77;;
13493;SDS011;6819;50.886;4.332;2023-04-03T12:52:20;5.72;;;1.90;;
13493;SDS011;6819;50.886;4.332;2023-04-03T12:54:50;2.40;;;1.52;;
13493;SDS011;6819;50.886;4.332;2023-04-03T12:57:20;2.40;;;1.77;;
13493;SDS011;6819;50.886;4.332;2023-04-03T12:59:47;4.72;;;1.60;;
13493;SDS011;6819;50.886;4.332;2023-04-03T13:02:20;3.17;;;1.67;;
13493;SDS011;6819;50.886;4.332;2023-04-03T13:04:48;2.40;;;1.55;;
13493;SDS011;6819;50.886;4.332;2023-04-03T13:07:19;4.07;;;1.90;;
13493;SDS011;6819;50.886;4.332;2023-04-03T13:09:54;3.38;;;1.67;;
13493;SDS011;6819;50.886;4.332;2023-04-03T13:12:20;4.07;;;2.00;;
13493;SDS011;6819;50.886;4.332;2023-04-03T13:14:57;4.38;;;2.00;;
13493;SDS011;6819;50.886;4.332;2023-04-03T13:17:23;3.92;;;2.03;;
13493;SDS011;6819;50.886;4.332;2023-04-03T13:19:49;12.02;;;1.70;;
13493;SDS011;6819;50.886;4.332;2023-04-03T13:22:24;4.38;;;1.67;;
13493;SDS011;6819;50.886;4.332;2023-04-03T13:24:51;5.05;;;2.00;;
13493;SDS011;6819;50.886;4.332;2023-04-03T13:27:17;2.85;;;1.67;;
13493;SDS011;6819;50.886;4.332;2023-04-03T13:29:48;3.40;;;1.50;;
13493;SDS011;6819;50.886;4.332;2023-04-03T13:32:22;3.63;;;1.48;;
13493;SDS011;6819;50.886;4.332;2023-04-03T13:34:49;4.35;;;1.90;;
13493;SDS011;6819;50.886;4.332;2023-04-03T13:39:56;2.88;;;1.75;;
13493;SDS011;6819;50.886;4.332;2023-04-03T13:42:23;2.88;;;1.63;;
13493;SDS011;6819;50.886;4.332;2023-04-03T13:45:05;5.88;;;2.03;;
13493;SDS011;6819;50.886;4.332;2023-04-03T13:47:38;2.67;;;1.63;;
13493;SDS011;6819;50.886;4.332;2023-04-03T13:55:17;3.40;;;1.70;;
13493;SDS011;6819;50.886;4.332;2023-04-03T13:57:55;3.80;;;1.83;;
13493;SDS011;6819;50.886;4.332;2023-04-03T14:02:54;3.30;;;1.90;;
13493;SDS011;6819;50.886;4.332;2023-04-03T14:05:21;4.60;;;2.08;;
13493;SDS011;6819;50.886;4.332;2023-04-03T14:07:49;4.10;;;1.77;;
13493;SDS011;6819;50.886;4.332;2023-04-03T14:10:16;4.65;;;2.10;;
13493;SDS011;6819;50.886;4.332;2023-04-03T14:12:42;5.82;;;2.20;;
13493;SDS011;6819;50.886;4.332;2023-04-03T14:15:27;7.05;;;2.40;;
13493;SDS011;6819;50.886;4.332;2023-04-03T14:17:54;8.25;;;3.08;;
13493;SDS011;6819;50.886;4.332;2023-04-03T14:20:21;11.23;;;1.90;;
13493;SDS011;6819;50.886;4.332;2023-04-03T14:22:48;4.60;;;1.80;;
13493;SDS011;6819;50.886;4.332;2023-04-03T14:25:16;5.20;;;1.95;;
13493;SDS011;6819;50.886;4.332;2023-04-03T14:27:44;5.93;;;2.05;;
13493;SDS011;6819;50.886;4.332;2023-04-03T14:30:43;2.60;;;1.50;;
13493;SDS011;6819;50.886;4.332;2023-04-03T14:33:03;4.15;;;1.85;;
13493;SDS011;6819;50.886;4.332;2023-04-03T14:35:29;4.95;;;1.90;;
13493;SDS011;6819;50.886;4.332;2023-04-03T14:37:55;8.25;;;2.20;;
13493;SDS011;6819;50.886;4.332;2023-04-03T14:40:25;4.72;;;2.03;;
13493;SDS011;6819;50.886;4.332;2023-04-03T14:42:53;3.88;;;1.88;;
13493;SDS011;6819;50.886;4.332;2023-04-03T14:45:20;5.53;;;1.95;;
13493;SDS011;6819;50.886;4.332;2023-04-03T14:47:48;5.32;;;1.92;;
13493;SDS011;6819;50.886;4.332;2023-04-03T14:50:16;2.97;;;1.67;;
13493;SDS011;6819;50.886;4.332;2023-04-03T14:52:43;2.67;;;1.70;;
13493;SDS011;6819;50.886;4.332;2023-04-03T14:55:18;4.22;;;1.67;;
13493;SDS011;6819;50.886;4.332;2023-04-03T14:57:44;3.95;;;1.75;;
13493;SDS011;6819;50.886;4.332;2023-04-03T15:00:15;6.15;;;2.10;;
13493;SDS011;6819;50.886;4.332;2023-04-03T15:02:41;3.33;;;1.70;;
13493;SDS011;6819;50.886;4.332;2023-04-03T15:05:08;4.15;;;2.03;;
13493;SDS011;6819;50.886;4.332;2023-04-03T15:07:36;4.78;;;1.83;;
13493;SDS011;6819;50.886;4.332;2023-04-03T15:10:05;3.55;;;1.67;;
13493;SDS011;6819;50.886;4.332;2023-04-03T15:12:32;3.85;;;1.60;;
13493;SDS011;6819;50.886;4.332;2023-04-03T15:14:58;3.35;;;1.92;;
13493;SDS011;6819;50.886;4.332;2023-04-03T15:17:24;5.80;;;1.98;;
13493;SDS011;6819;50.886;4.332;2023-04-03T15:19:50;4.38;;;1.80;;
13493;SDS011;6819;50.886;4.332;2023-04-03T15:22:18;4.38;;;1.92;;
13493;SDS011;6819;50.886;4.332;2023-04-03T15:24:45;7.22;;;1.67;;
13493;SDS011;6819;50.886;4.332;2023-04-03T15:27:11;3.28;;;2.10;;
13493;SDS011;6819;50.886;4.332;2023-04-03T15:29:38;3.75;;;1.70;;
13493;SDS011;6819;50.886;4.332;2023-04-03T15:32:05;2.88;;;1.45;;
13493;SDS011;6819;50.886;4.332;2023-04-03T15:34:31;3.42;;;1.42;;
13493;SDS011;6819;50.886;4.332;2023-04-03T15:36:57;3.67;;;1.60;;
13493;SDS011;6819;50.886;4.332;2023-04-03T15:39:26;3.72;;;1.80;;
13493;SDS011;6819;50.886;4.332;2023-04-03T15:41:53;3.15;;;1.73;;
13493;SDS011;6819;50.886;4.332;2023-04-03T15:44:19;3.55;;;1.90;;
13493;SDS011;6819;50.886;4.332;2023-04-03T15:46:45;4.07;;;1.70;;
13493;SDS011;6819;50.886;4.332;2023-04-03T15:49:12;3.80;;;1.75;;
13493;SDS011;6819;50.886;4.332;2023-04-03T15:51:38;3.67;;;1.60;;
13493;SDS011;6819;50.886;4.332;2023-04-03T15:54:04;4.20;;;1.77;;
13493;SDS011;6819;50.886;4.332;2023-04-03T15:56:30;6.88;;;1.95;;
13493;SDS011;6819;50.886;4.332;2023-04-03T15:58:56;2.63;;;1.50;;
13493;SDS011;6819;50.886;4.332;2023-04-03T16:01:22;3.53;;;1.75;;
13493;SDS011;6819;50.886;4.332;2023-04-03T16:03:48;4.25;;;1.67;;
13493;SDS011;6819;50.886;4.332;2023-04-03T16:06:14;4.43;;;1.77;;
13493;SDS011;6819;50.886;4.332;2023-04-03T16:08:41;2.78;;;1.70;;
13493;SDS011;6819;50.886;4.332;2023-04-03T16:11:08;5.82;;;1.63;;
13493;SDS011;6819;50.886;4.332;2023-04-03T16:13:34;5.80;;;2.70;;
13493;SDS011;6819;50.886;4.332;2023-04-03T16:16:01;3.17;;;1.77;;
13493;SDS011;6819;50.886;4.332;2023-04-03T16:18:27;4.03;;;1.73;;
13493;SDS011;6819;50.886;4.332;2023-04-03T16:20:53;2.47;;;1.38;;
13493;SDS011;6819;50.886;4.332;2023-04-03T16:23:20;2.67;;;1.58;;
13493;SDS011;6819;50.886;4.332;2023-04-03T16:25:46;3.95;;;1.90;;
13493;SDS011;6819;50.886;4.332;2023-04-03T16:28:13;8.52;;;1.80;;
13493;SDS011;6819;50.886;4.332;2023-04-03T16:30:40;5.88;;;2.10;;
13493;SDS011;6819;50.886;4.332;2023-04-03T16:33:06;4.00;;;1.85;;